Time;durP1;ratioP1;P1;durP2;ratioP2;P2;SDS_P1;SDS_P2;PMS_P1;PMS_P2;Temp;Humidity;BMP_temperature;BMP_pressure;BME280_temperature;BME280_humidity;BME280_pressure;Samples;Min_cycle;Max_cycle;Signal;HPM_P1;HPM_P2
2021/09/17 00:01:20;;;;;;;21.95;14.48;;;11.70;99.90;;;;;;5112628;28;20510;-68
2021/09/17 00:03:45;;;;;;;24.65;17.70;;;11.60;99.90;;;;;;5113753;28;20051;-68
2021/09/17 00:06:11;;;;;;;25.65;17.98;;;11.60;99.90;;;;;;5095715;28;20055;-68
2021/09/17 00:08:36;;;;;;;21.40;15.57;;;11.60;99.90;;;;;;5112577;28;20364;-68
2021/09/17 00:11:03;;;;;;;18.90;14.18;;;11.60;99.90;;;;;;5113724;28;20099;-68
2021/09/17 00:13:28;;;;;;;25.48;15.32;;;11.50;99.90;;;;;;5112182;28;20027;-68
2021/09/17 00:15:54;;;;;;;22.77;15.60;;;11.50;99.90;;;;;;5095515;28;20555;-68
2021/09/17 00:18:20;;;;;;;21.52;16.50;;;11.40;99.90;;;;;;5095199;28;20077;-68
2021/09/17 00:20:46;;;;;;;29.40;17.98;;;11.40;99.90;;;;;;5117358;28;20032;-68
2021/09/17 00:23:11;;;;;;;23.30;16.63;;;11.40;99.90;;;;;;5116459;28;20476;-68
2021/09/17 00:25:37;;;;;;;23.38;17.05;;;11.30;99.90;;;;;;5098656;28;20051;-68
2021/09/17 00:28:03;;;;;;;21.55;15.93;;;11.30;99.90;;;;;;5117259;28;20035;-68
2021/09/17 00:30:28;;;;;;;21.40;15.52;;;11.30;99.90;;;;;;5098603;28;20027;-68
2021/09/17 00:32:56;;;;;;;23.52;16.50;;;11.30;99.90;;;;;;5115906;28;20037;-68
2021/09/17 00:35:21;;;;;;;22.63;16.60;;;11.30;99.90;;;;;;5117360;28;20027;-68
2021/09/17 00:37:47;;;;;;;29.27;19.15;;;11.20;99.90;;;;;;5098517;28;20019;-68
2021/09/17 00:40:13;;;;;;;22.52;16.58;;;11.20;99.90;;;;;;5117032;28;20020;-68
2021/09/17 00:42:39;;;;;;;20.58;16.10;;;11.20;99.90;;;;;;5115815;28;20023;-68
2021/09/17 00:45:06;;;;;;;23.55;15.20;;;11.20;99.90;;;;;;5117193;28;20491;-68
2021/09/17 00:47:32;;;;;;;22.33;14.90;;;11.10;99.90;;;;;;5115316;28;20023;-68
2021/09/17 00:49:58;;;;;;;19.33;14.65;;;11.10;99.90;;;;;;5117078;28;20080;-67
2021/09/17 00:52:23;;;;;;;23.90;16.58;;;11.20;99.90;;;;;;5116729;28;20032;-68
2021/09/17 00:54:49;;;;;;;20.88;15.57;;;11.20;99.90;;;;;;5116704;28;20027;-68
2021/09/17 00:57:15;;;;;;;23.33;15.05;;;11.20;99.90;;;;;;5098477;28;20372;-68
2021/09/17 00:59:40;;;;;;;23.70;15.57;;;11.10;99.90;;;;;;5098131;28;20055;-68
2021/09/17 01:02:06;;;;;;;25.27;16.23;;;11.10;99.90;;;;;;5098004;28;20118;-68
2021/09/17 01:04:32;;;;;;;28.00;17.98;;;11.10;99.90;;;;;;5116628;28;20020;-68
2021/09/17 01:06:57;;;;;;;27.48;17.42;;;11.10;99.90;;;;;;5116637;28;20028;-68
2021/09/17 01:09:24;;;;;;;22.85;15.82;;;11.10;99.90;;;;;;5116313;28;20019;-68
2021/09/17 01:11:50;;;;;;;21.90;15.63;;;11.10;99.90;;;;;;5116463;28;20023;-68
2021/09/17 01:14:18;;;;;;;30.23;19.08;;;11.10;99.90;;;;;;5116233;28;20027;-68
2021/09/17 01:16:44;;;;;;;31.08;19.73;;;11.10;99.90;;;;;;5081522;28;20152;-68
2021/09/17 01:19:10;;;;;;;27.95;18.00;;;11.10;99.90;;;;;;5099517;28;20072;-69
2021/09/17 01:21:36;;;;;;;24.40;16.48;;;11.10;99.90;;;;;;5116149;28;20027;-69
2021/09/17 01:24:02;;;;;;;23.80;15.85;;;11.00;99.90;;;;;;5114638;28;20473;-68
2021/09/17 01:26:28;;;;;;;23.02;16.73;;;11.00;99.90;;;;;;5104403;28;20040;-68
2021/09/17 01:28:53;;;;;;;23.73;17.63;;;11.00;99.90;;;;;;5077395;28;20031;-68
2021/09/17 01:31:19;;;;;;;23.52;16.55;;;11.00;99.90;;;;;;5077105;28;20477;-68
2021/09/17 01:33:45;;;;;;;25.92;17.50;;;11.10;99.90;;;;;;5094411;28;20016;-68
2021/09/17 01:36:11;;;;;;;31.40;18.05;;;11.00;99.90;;;;;;5094358;28;20046;-68
2021/09/17 01:38:40;;;;;;;23.52;17.05;;;11.10;99.90;;;;;;5077673;28;20095;-68
2021/09/17 01:41:07;;;;;;;29.13;18.25;;;11.10;99.90;;;;;;5095675;28;20035;-68
2021/09/17 01:43:32;;;;;;;25.67;17.00;;;11.10;99.90;;;;;;5060160;28;20055;-68
2021/09/17 01:45:58;;;;;;;22.75;16.75;;;11.10;99.90;;;;;;5095338;28;20027;-68
2021/09/17 01:48:26;;;;;;;21.50;15.73;;;11.10;99.90;;;;;;5060148;28;20020;-68
2021/09/17 01:50:52;;;;;;;32.60;20.30;;;11.10;99.90;;;;;;5094521;28;20114;-68
2021/09/17 01:53:18;;;;;;;40.25;22.27;;;11.20;99.90;;;;;;5094244;28;20177;-68
2021/09/17 01:55:43;;;;;;;36.30;23.40;;;11.20;99.90;;;;;;5093611;28;20028;-68
2021/09/17 01:58:09;;;;;;;44.40;24.77;;;11.40;99.90;;;;;;5076916;28;20021;-68
2021/09/17 02:00:35;;;;;;;40.20;22.58;;;11.50;99.90;;;;;;5094766;28;20107;-68
2021/09/17 02:03:01;;;;;;;30.05;19.13;;;11.50;99.90;;;;;;5076938;28;20032;-69
2021/09/17 02:05:28;;;;;;;32.08;20.17;;;11.50;99.90;;;;;;5076444;28;20421;-68
2021/09/17 02:07:53;;;;;;;34.13;19.33;;;11.50;99.90;;;;;;5059863;28;20114;-68
2021/09/17 02:10:19;;;;;;;27.73;18.58;;;11.50;99.90;;;;;;5093709;28;20103;-68
2021/09/17 02:12:45;;;;;;;28.15;18.52;;;11.50;99.90;;;;;;5094719;28;20354;-67
2021/09/17 02:15:11;;;;;;;26.35;18.83;;;11.50;99.90;;;;;;5095046;28;20480;-68
2021/09/17 02:17:37;;;;;;;27.25;18.65;;;11.40;99.90;;;;;;5076304;28;20115;-68
2021/09/17 02:20:07;;;;;;;27.25;17.90;;;11.50;99.90;;;;;;5076276;28;20051;-68
2021/09/17 02:22:34;;;;;;;26.58;17.13;;;11.50;99.90;;;;;;5093687;28;20508;-68
2021/09/17 02:25:00;;;;;;;22.30;16.70;;;11.50;99.90;;;;;;5094795;28;20020;-68
2021/09/17 02:27:26;;;;;;;24.25;15.68;;;11.60;99.90;;;;;;5111405;28;20104;-68
2021/09/17 02:29:52;;;;;;;33.92;18.23;;;11.60;99.90;;;;;;5096423;28;20410;-68
2021/09/17 02:32:18;;;;;;;25.00;16.27;;;11.60;99.90;;;;;;5113288;28;20024;-67
2021/09/17 02:34:43;;;;;;;25.70;16.27;;;11.70;99.90;;;;;;5096788;28;20016;-68
2021/09/17 02:37:09;;;;;;;28.15;17.70;;;11.70;99.90;;;;;;5115047;28;20027;-68
2021/09/17 02:39:34;;;;;;;24.80;17.00;;;11.70;99.90;;;;;;5114720;28;20027;-68
2021/09/17 02:42:00;;;;;;;26.67;18.60;;;11.70;99.90;;;;;;5114193;28;20161;-68
2021/09/17 02:44:26;;;;;;;31.08;20.15;;;11.70;99.90;;;;;;5113748;28;20024;-68
2021/09/17 02:46:52;;;;;;;29.77;18.45;;;11.80;99.90;;;;;;5097125;28;20114;-68
2021/09/17 02:49:17;;;;;;;34.55;20.88;;;11.80;99.90;;;;;;5079245;28;20031;-68
2021/09/17 02:51:43;;;;;;;31.73;21.05;;;11.90;99.90;;;;;;5113492;28;20031;-68
2021/09/17 02:54:08;;;;;;;32.92;22.35;;;12.00;99.90;;;;;;5096488;28;20106;-68
2021/09/17 02:56:34;;;;;;;31.40;21.13;;;12.00;99.90;;;;;;5114831;28;20020;-68
2021/09/17 02:59:00;;;;;;;33.90;21.10;;;12.10;99.90;;;;;;5115109;28;20024;-68
2021/09/17 03:01:25;;;;;;;32.95;21.33;;;12.10;99.90;;;;;;5113435;28;20024;-69
2021/09/17 03:03:51;;;;;;;31.98;22.17;;;12.10;99.90;;;;;;5113886;28;20032;-69
2021/09/17 03:06:17;;;;;;;39.15;23.30;;;12.10;99.90;;;;;;5114680;28;20019;-68
2021/09/17 03:08:45;;;;;;;41.38;24.40;;;12.20;99.90;;;;;;5113921;28;20495;-68
2021/09/17 03:11:11;;;;;;;43.75;24.98;;;12.20;99.90;;;;;;5113195;28;20039;-68
2021/09/17 03:13:36;;;;;;;34.85;22.13;;;12.20;99.90;;;;;;5096621;28;20065;-68
2021/09/17 03:16:05;;;;;;;44.22;26.80;;;12.30;99.90;;;;;;5112680;28;20055;-68
2021/09/17 03:18:31;;;;;;;43.92;27.23;;;12.30;99.90;;;;;;5113374;28;20019;-68
2021/09/17 03:20:57;;;;;;;41.60;26.50;;;12.30;99.90;;;;;;5113282;28;20032;-68
2021/09/17 03:23:22;;;;;;;39.72;26.20;;;12.30;99.90;;;;;;5112720;28;20148;-69
2021/09/17 03:25:48;;;;;;;45.80;27.55;;;12.40;99.90;;;;;;5095801;28;20092;-68
2021/09/17 03:28:13;;;;;;;50.78;29.73;;;12.40;99.90;;;;;;5113008;28;20020;-68
2021/09/17 03:30:39;;;;;;;51.60;30.42;;;12.40;99.90;;;;;;5112604;28;20058;-68
2021/09/17 03:33:05;;;;;;;48.90;29.85;;;12.50;99.90;;;;;;5095530;28;20024;-68
2021/09/17 03:35:30;;;;;;;47.67;29.92;;;12.50;99.90;;;;;;5114342;28;20016;-68
2021/09/17 03:37:56;;;;;;;51.20;31.20;;;12.60;99.90;;;;;;5096334;28;20032;-68
2021/09/17 03:40:22;;;;;;;47.83;30.52;;;12.60;99.90;;;;;;5095907;28;20469;-68
2021/09/17 03:42:47;;;;;;;45.85;31.40;;;12.60;99.90;;;;;;5095839;28;20062;-68
2021/09/17 03:45:13;;;;;;;53.60;31.95;;;12.60;99.90;;;;;;5095857;28;20465;-68
2021/09/17 03:47:39;;;;;;;48.15;31.23;;;12.60;99.90;;;;;;5095790;28;20103;-68
2021/09/17 03:50:05;;;;;;;50.90;31.73;;;12.60;99.90;;;;;;5095469;28;20091;-68
2021/09/17 03:52:31;;;;;;;48.25;31.00;;;12.60;99.90;;;;;;5112929;28;20069;-68
2021/09/17 03:54:56;;;;;;;49.22;31.20;;;12.60;99.90;;;;;;5081338;28;20028;-68
2021/09/17 03:57:22;;;;;;;54.58;30.38;;;12.60;99.90;;;;;;5116693;28;20023;-68
2021/09/17 03:59:48;;;;;;;48.22;30.25;;;12.60;99.90;;;;;;5116880;28;20095;-68
2021/09/17 04:02:13;;;;;;;49.92;31.73;;;12.60;99.90;;;;;;5116606;28;20097;-68
2021/09/17 04:04:40;;;;;;;54.10;32.22;;;12.70;99.90;;;;;;5099154;28;20381;-68
2021/09/17 04:07:07;;;;;;;50.92;31.45;;;12.70;99.90;;;;;;5116112;28;20023;-68
2021/09/17 04:09:33;;;;;;;53.63;31.05;;;12.70;99.90;;;;;;5099374;28;20110;-68
2021/09/17 04:11:58;;;;;;;57.55;32.67;;;12.70;99.90;;;;;;5116327;28;20368;-68
2021/09/17 04:14:25;;;;;;;56.15;33.05;;;12.70;99.90;;;;;;5116376;28;20041;-68
2021/09/17 04:16:50;;;;;;;55.08;35.08;;;12.70;99.90;;;;;;5117759;28;20016;-68
2021/09/17 04:19:16;;;;;;;60.58;34.55;;;12.70;99.90;;;;;;5117692;28;20153;-68
2021/09/17 04:21:41;;;;;;;62.10;37.70;;;12.70;99.90;;;;;;5116519;28;20035;-68
2021/09/17 04:24:07;;;;;;;65.00;37.00;;;12.80;99.90;;;;;;5099055;28;20472;-69
2021/09/17 04:26:33;;;;;;;70.28;37.42;;;12.80;99.90;;;;;;5116984;28;20055;-68
2021/09/17 04:28:58;;;;;;;66.63;37.15;;;12.80;99.90;;;;;;5116518;28;20028;-67
2021/09/17 04:31:24;;;;;;;69.68;38.35;;;12.80;99.90;;;;;;5098713;28;20027;-67
2021/09/17 04:33:49;;;;;;;69.28;38.53;;;12.80;99.90;;;;;;5117148;28;20024;-67
2021/09/17 04:36:15;;;;;;;63.28;37.50;;;12.80;99.90;;;;;;5099229;28;20028;-67
2021/09/17 04:38:40;;;;;;;65.72;37.15;;;12.90;99.90;;;;;;5115563;28;20444;-67
2021/09/17 04:41:06;;;;;;;72.45;38.65;;;12.80;99.90;;;;;;5098452;28;20015;-67
2021/09/17 04:43:32;;;;;;;68.28;39.20;;;12.80;99.90;;;;;;5081532;28;20067;-68
2021/09/17 04:45:58;;;;;;;67.28;38.20;;;12.80;99.90;;;;;;5116049;28;20020;-68
2021/09/17 04:48:23;;;;;;;69.63;40.35;;;12.80;99.90;;;;;;5117232;28;20035;-67
2021/09/17 04:50:49;;;;;;;77.78;42.15;;;12.90;99.90;;;;;;5116385;28;20020;-69
2021/09/17 04:53:15;;;;;;;75.68;40.25;;;12.90;99.90;;;;;;5116617;28;20024;-68
2021/09/17 04:55:41;;;;;;;69.78;39.22;;;12.90;99.90;;;;;;5083132;28;20107;-68
2021/09/17 04:58:08;;;;;;;70.63;40.22;;;12.90;99.90;;;;;;5082378;28;20024;-67
2021/09/17 05:00:36;;;;;;;81.22;39.72;;;12.90;99.90;;;;;;5115696;28;20106;-67
2021/09/17 05:03:01;;;;;;;73.95;41.55;;;12.90;99.90;;;;;;5115927;28;20430;-68
2021/09/17 05:05:27;;;;;;;78.25;40.72;;;12.90;99.90;;;;;;5116553;28;20480;-68
2021/09/17 05:07:53;;;;;;;74.05;40.05;;;12.90;99.90;;;;;;5116795;28;20027;-68
2021/09/17 05:10:20;;;;;;;81.18;41.38;;;12.90;99.90;;;;;;5114993;28;20483;-67
2021/09/17 05:12:45;;;;;;;79.95;43.13;;;12.90;99.90;;;;;;5115452;28;20524;-68
2021/09/17 05:15:11;;;;;;;79.88;43.13;;;12.90;99.90;;;;;;5116649;28;20055;-67
2021/09/17 05:17:37;;;;;;;81.57;44.08;;;12.90;99.90;;;;;;5098468;28;20525;-68
2021/09/17 05:20:04;;;;;;;81.75;43.38;;;12.90;99.90;;;;;;5114859;28;20020;-69
2021/09/17 05:22:30;;;;;;;83.80;46.38;;;12.90;99.90;;;;;;5097662;28;20028;-67
2021/09/17 05:24:57;;;;;;;91.05;47.75;;;12.90;99.90;;;;;;5115914;28;20031;-69
2021/09/17 05:27:25;;;;;;;90.10;46.58;;;13.00;99.90;;;;;;5098238;28;20050;-67
2021/09/17 05:29:52;;;;;;;90.90;45.78;;;13.00;99.90;;;;;;5114650;28;20426;-69
2021/09/17 05:32:18;;;;;;;92.38;45.90;;;13.00;99.90;;;;;;5098066;28;20028;-66
2021/09/17 05:34:44;;;;;;;92.53;46.53;;;13.00;99.90;;;;;;5115980;28;20073;-66
2021/09/17 05:37:10;;;;;;;96.40;50.78;;;13.00;99.90;;;;;;5097932;28;20016;-67
2021/09/17 05:39:35;;;;;;;100.40;48.85;;;13.10;99.90;;;;;;5116145;28;20461;-67
2021/09/17 05:42:01;;;;;;;98.13;50.47;;;13.10;99.90;;;;;;5114328;28;20032;-67
2021/09/17 05:44:27;;;;;;;97.95;50.72;;;13.10;99.90;;;;;;5081444;28;20027;-67
2021/09/17 05:46:52;;;;;;;95.90;49.97;;;13.20;99.90;;;;;;5114078;28;20492;-67
2021/09/17 05:49:18;;;;;;;100.13;51.20;;;13.20;99.90;;;;;;5115312;28;20076;-67
2021/09/17 05:51:44;;;;;;;98.80;51.80;;;13.20;99.90;;;;;;5115794;28;20035;-67
2021/09/17 05:54:10;;;;;;;100.85;51.90;;;13.30;99.90;;;;;;5114049;28;20027;-68
2021/09/17 05:56:36;;;;;;;97.93;53.05;;;13.30;99.90;;;;;;5115180;28;20034;-67
2021/09/17 05:59:02;;;;;;;107.18;55.90;;;13.30;99.90;;;;;;5097471;28;20031;-69
2021/09/17 06:01:30;;;;;;;106.32;54.25;;;13.40;99.90;;;;;;5114464;28;20027;-67
2021/09/17 06:03:56;;;;;;;115.90;57.63;;;13.50;99.90;;;;;;5114627;28;20465;-67
2021/09/17 06:06:22;;;;;;;117.38;55.13;;;13.50;99.90;;;;;;5115569;28;20051;-67
2021/09/17 06:08:48;;;;;;;116.85;57.20;;;13.50;99.90;;;;;;5080286;28;20024;-67
2021/09/17 06:11:14;;;;;;;116.22;58.33;;;13.60;99.90;;;;;;5097148;28;20458;-69
2021/09/17 06:13:40;;;;;;;106.82;56.50;;;13.70;99.90;;;;;;5115361;28;20024;-68
2021/09/17 06:16:05;;;;;;;114.10;56.90;;;13.70;99.90;;;;;;5114580;28;20076;-68
2021/09/17 06:18:31;;;;;;;98.45;57.30;;;13.80;99.90;;;;;;5114359;28;20022;-68
2021/09/17 06:20:58;;;;;;;102.97;57.20;;;13.90;99.90;;;;;;5097027;28;20106;-68
2021/09/17 06:23:24;;;;;;;99.50;53.85;;;13.90;99.90;;;;;;5114702;28;20034;-68
2021/09/17 06:25:50;;;;;;;101.00;56.13;;;14.00;99.90;;;;;;5114688;28;20488;-68
2021/09/17 06:28:15;;;;;;;113.70;58.95;;;13.90;99.90;;;;;;5114018;28;20065;-68
2021/09/17 06:30:41;;;;;;;118.20;59.22;;;14.00;99.90;;;;;;5114809;28;20473;-68
2021/09/17 06:33:07;;;;;;;118.47;61.45;;;14.10;99.90;;;;;;5115022;28;20028;-68
2021/09/17 06:35:33;;;;;;;122.55;60.30;;;14.10;99.90;;;;;;5113638;28;20019;-68
2021/09/17 06:37:59;;;;;;;135.73;64.35;;;14.20;99.90;;;;;;5114712;28;20012;-68
2021/09/17 06:40:26;;;;;;;159.57;66.85;;;14.20;99.90;;;;;;5114974;28;20035;-68
2021/09/17 06:42:54;;;;;;;152.73;65.18;;;14.30;99.90;;;;;;5114582;28;20377;-68
2021/09/17 06:45:19;;;;;;;143.15;65.75;;;14.30;99.90;;;;;;5089015;28;20020;-68
2021/09/17 06:47:48;;;;;;;152.27;69.07;;;14.40;99.90;;;;;;5092938;28;20030;-68
2021/09/17 06:50:16;;;;;;;137.02;64.75;;;14.50;99.90;;;;;;5061635;28;20047;-68
2021/09/17 06:52:47;;;;;;;144.02;65.10;;;14.50;99.90;;;;;;5092897;28;20016;-68
2021/09/17 06:55:14;;;;;;;152.80;68.07;;;14.60;99.90;;;;;;5107075;28;20016;-68
2021/09/17 06:57:50;;;;;;;147.95;68.47;;;14.60;99.90;;;;;;5083820;28;20077;-68
2021/09/17 07:00:17;;;;;;;147.93;67.13;;;14.60;99.90;;;;;;5068478;28;20055;-68
2021/09/17 07:02:43;;;;;;;154.48;67.97;;;14.70;99.90;;;;;;5075164;28;20028;-68
2021/09/17 07:05:09;;;;;;;148.85;65.85;;;14.70;99.90;;;;;;5103113;28;20423;-68
2021/09/17 07:07:35;;;;;;;147.25;66.10;;;14.80;99.90;;;;;;5105985;28;20024;-67
2021/09/17 07:10:02;;;;;;;158.82;67.22;;;14.80;99.90;;;;;;5092435;28;20028;-69
2021/09/17 07:12:28;;;;;;;164.23;66.88;;;14.90;99.90;;;;;;5093346;28;20042;-68
2021/09/17 07:14:54;;;;;;;159.55;67.60;;;15.00;99.90;;;;;;5065885;28;20015;-68
2021/09/17 07:17:19;;;;;;;150.18;63.50;;;15.00;99.90;;;;;;5113822;28;20039;-68
2021/09/17 07:19:45;;;;;;;156.30;65.97;;;15.00;99.90;;;;;;5110978;28;20437;-68
2021/09/17 07:22:10;;;;;;;150.82;62.75;;;15.10;99.90;;;;;;5113665;28;20028;-68
2021/09/17 07:24:37;;;;;;;150.02;66.65;;;15.10;99.90;;;;;;5092400;28;20114;-68
2021/09/17 07:27:02;;;;;;;143.57;64.55;;;15.20;99.90;;;;;;5093163;28;20040;-68
2021/09/17 07:29:28;;;;;;;141.50;64.90;;;15.30;99.90;;;;;;5097252;28;20545;-68
2021/09/17 07:31:53;;;;;;;146.98;64.50;;;15.40;99.90;;;;;;5096750;28;20464;-66
2021/09/17 07:34:19;;;;;;;141.00;63.13;;;15.40;99.90;;;;;;5079028;28;20358;-66
2021/09/17 07:36:44;;;;;;;132.27;62.45;;;15.60;99.90;;;;;;5099857;28;20020;-66
2021/09/17 07:39:10;;;;;;;138.73;62.83;;;15.60;99.90;;;;;;5082863;28;20106;-67
2021/09/17 07:41:36;;;;;;;143.55;65.60;;;15.60;99.90;;;;;;5087482;28;20165;-66
2021/09/17 07:44:02;;;;;;;138.18;66.20;;;15.80;99.90;;;;;;5084308;28;20039;-67
2021/09/17 07:46:28;;;;;;;125.18;61.65;;;15.80;99.90;;;;;;5064204;28;20088;-68
2021/09/17 07:48:53;;;;;;;125.55;61.85;;;15.90;99.90;;;;;;5098192;28;20465;-69
2021/09/17 07:51:19;;;;;;;123.00;59.85;;;16.00;99.90;;;;;;5096445;28;20020;-66
2021/09/17 07:53:45;;;;;;;117.00;59.97;;;16.10;99.90;;;;;;5060479;28;20116;-67
2021/09/17 07:56:10;;;;;;;120.82;58.90;;;16.20;99.90;;;;;;5095591;28;20024;-67
2021/09/17 07:58:36;;;;;;;112.40;57.30;;;16.30;99.90;;;;;;5096466;28;20028;-66
2021/09/17 08:01:02;;;;;;;107.57;56.28;;;16.50;99.90;;;;;;5095648;28;20016;-67
2021/09/17 08:03:32;;;;;;;102.88;53.42;;;16.70;99.90;;;;;;5096047;28;20032;-66
2021/09/17 08:05:58;;;;;;;108.13;52.65;;;16.70;99.90;;;;;;5103668;28;20055;-66
2021/09/17 08:08:24;;;;;;;99.35;53.50;;;16.70;99.90;;;;;;5113216;28;20023;-68
2021/09/17 08:10:49;;;;;;;101.00;52.85;;;16.60;99.90;;;;;;5103973;28;20024;-68
2021/09/17 08:13:15;;;;;;;106.57;53.67;;;16.50;99.90;;;;;;5080270;28;20020;-68
2021/09/17 08:15:41;;;;;;;102.90;52.33;;;16.60;99.90;;;;;;5089213;28;20093;-70
2021/09/17 08:18:06;;;;;;;102.78;53.70;;;17.00;99.90;;;;;;5096051;28;20032;-68
2021/09/17 08:20:32;;;;;;;94.57;51.40;;;17.30;99.90;;;;;;5100717;28;20024;-70
2021/09/17 08:22:57;;;;;;;85.38;49.65;;;17.60;99.90;;;;;;5116702;28;20031;-70
2021/09/17 08:25:24;;;;;;;86.60;50.45;;;17.70;99.90;;;;;;5108450;28;20024;-67
2021/09/17 08:27:50;;;;;;;87.07;50.05;;;17.70;99.90;;;;;;5078283;28;20063;-68
2021/09/17 08:30:15;;;;;;;84.57;50.40;;;17.80;99.90;;;;;;5096202;28;20105;-71
2021/09/17 08:32:41;;;;;;;85.15;50.33;;;18.00;99.90;;;;;;5091313;28;20027;-67
2021/09/17 08:35:09;;;;;;;73.57;45.65;;;18.50;99.90;;;;;;5116261;28;20526;-67
2021/09/17 08:37:34;;;;;;;78.57;45.83;;;18.60;99.90;;;;;;5114969;28;20027;-68
2021/09/17 08:40:00;;;;;;;72.70;46.03;;;18.80;99.90;;;;;;5115951;28;20020;-68
2021/09/17 08:42:25;;;;;;;77.05;48.78;;;18.80;99.90;;;;;;5106986;28;20520;-68
2021/09/17 08:44:51;;;;;;;73.72;46.95;;;18.40;99.90;;;;;;5077831;28;20028;-68
2021/09/17 08:47:18;;;;;;;74.22;44.95;;;18.30;99.90;;;;;;5078703;28;20119;-67
2021/09/17 08:49:45;;;;;;;84.90;50.75;;;18.40;99.90;;;;;;5078198;28;20021;-68
2021/09/17 08:52:11;;;;;;;85.95;49.45;;;18.10;99.90;;;;;;5083375;28;20031;-68
2021/09/17 08:54:36;;;;;;;86.22;49.83;;;17.90;99.90;;;;;;5107631;28;20530;-68
2021/09/17 08:57:02;;;;;;;85.88;49.47;;;17.90;99.90;;;;;;5094544;28;20454;-67
2021/09/17 08:59:28;;;;;;;83.60;49.00;;;18.20;99.90;;;;;;5099738;28;20051;-67
2021/09/17 09:01:53;;;;;;;81.82;51.33;;;18.30;99.90;;;;;;5095309;28;20392;-67
2021/09/17 09:04:30;;;;;;;80.43;47.97;;;18.10;99.90;;;;;;5094093;28;20032;-68
2021/09/17 09:07:04;;;;;;;76.05;48.15;;;18.40;99.90;;;;;;5107274;28;20020;-68
2021/09/17 09:09:30;;;;;;;76.97;49.03;;;18.50;99.90;;;;;;5114776;28;20093;-66
2021/09/17 09:11:55;;;;;;;72.30;47.22;;;18.50;99.90;;;;;;5097506;28;20027;-68
2021/09/17 09:14:21;;;;;;;75.53;48.50;;;18.70;99.90;;;;;;5060397;28;20028;-67
2021/09/17 09:16:49;;;;;;;76.20;49.03;;;18.50;99.90;;;;;;5114176;28;20132;-67
2021/09/17 09:19:18;;;;;;;80.88;51.63;;;18.30;99.90;;;;;;5097619;28;20515;-68
2021/09/17 09:21:44;;;;;;;80.45;48.17;;;18.10;99.90;;;;;;5095932;28;20067;-66
2021/09/17 09:24:16;;;;;;;84.75;49.13;;;18.20;99.90;;;;;;5094883;28;20024;-68
2021/09/17 09:26:44;;;;;;;72.10;45.80;;;18.20;99.90;;;;;;5078457;28;20389;-67
2021/09/17 09:29:57;;;;;;;69.93;44.45;;;18.50;99.90;;;;;;5060970;28;20023;-67
2021/09/17 09:32:32;;;;;;;67.88;44.33;;;18.70;99.90;;;;;;5095180;28;20042;-68
2021/09/17 09:35:03;;;;;;;66.53;42.60;;;18.50;99.90;;;;;;5078902;28;20473;-67
2021/09/17 09:37:31;;;;;;;61.70;41.85;;;18.50;99.90;;;;;;5115931;28;20089;-67
2021/09/17 09:40:17;;;;;;;67.13;40.40;;;18.50;99.90;;;;;;5112696;28;20076;-67
2021/09/17 09:42:45;;;;;;;56.10;38.08;;;18.70;99.90;;;;;;5095447;28;20031;-67
2021/09/17 09:45:18;;;;;;;55.80;37.05;;;19.20;99.90;;;;;;5095172;28;20047;-68
2021/09/17 09:47:49;;;;;;;63.65;39.03;;;19.40;99.90;;;;;;5076722;28;20034;-68
2021/09/17 09:50:22;;;;;;;52.47;35.38;;;19.70;99.90;;;;;;5067084;28;20122;-68
2021/09/17 09:52:49;;;;;;;56.67;36.87;;;19.80;99.90;;;;;;5095657;28;20078;-68
2021/09/17 09:55:15;;;;;;;51.97;35.45;;;20.10;99.90;;;;;;5114607;28;20110;-67
2021/09/17 09:57:42;;;;;;;45.70;32.00;;;20.30;99.90;;;;;;5114036;28;20043;-67
2021/09/17 10:00:09;;;;;;;43.88;30.85;;;20.10;99.90;;;;;;5112112;28;20026;-66
2021/09/17 10:02:37;;;;;;;43.20;29.50;;;19.80;99.90;;;;;;5113753;28;20026;-67
2021/09/17 10:05:05;;;;;;;40.75;27.52;;;20.00;99.90;;;;;;5097550;28;20024;-67
2021/09/17 10:07:31;;;;;;;42.28;28.45;;;19.60;99.90;;;;;;5076636;28;20016;-67
2021/09/17 10:09:58;;;;;;;35.78;26.33;;;19.60;99.90;;;;;;5086488;28;20361;-67
2021/09/17 10:12:25;;;;;;;38.35;25.80;;;19.90;99.90;;;;;;5109626;28;20511;-67
2021/09/17 10:14:52;;;;;;;40.42;27.05;;;19.80;99.90;;;;;;5075962;28;20070;-67
2021/09/17 10:17:21;;;;;;;38.67;26.85;;;19.80;99.90;;;;;;5060147;28;20016;-67
2021/09/17 10:19:49;;;;;;;37.25;26.85;;;20.10;99.90;;;;;;5077291;28;20028;-67
2021/09/17 10:22:36;;;;;;;34.53;24.23;;;20.20;99.90;;;;;;5078610;28;20051;-68
2021/09/17 10:25:20;;;;;;;34.35;22.23;;;20.10;99.90;;;;;;5114570;28;20491;-67
2021/09/17 10:28:01;;;;;;;30.88;21.55;;;20.10;99.90;;;;;;5095047;28;20100;-69
2021/09/17 10:30:29;;;;;;;28.48;21.15;;;20.20;99.90;;;;;;5114257;28;20023;-69
2021/09/17 10:32:55;;;;;;;30.63;19.98;;;20.10;99.90;;;;;;5106316;28;20389;-69
2021/09/17 10:35:23;;;;;;;29.35;20.00;;;20.40;99.90;;;;;;5061237;28;20022;-69
2021/09/17 10:38:15;;;;;;;29.40;20.42;;;20.80;99.90;;;;;;5106420;28;20077;-69
2021/09/17 10:40:44;;;;;;;26.95;19.80;;;21.40;99.90;;;;;;5094042;28;20550;-69
2021/09/17 10:45:54;;;;;;;29.98;20.15;;;21.80;99.90;;;;;;5070532;28;20429;-69
2021/09/17 10:48:30;;;;;;;27.35;20.83;;;22.60;99.90;;;;;;5053005;28;20112;-68
2021/09/17 10:51:03;;;;;;;26.55;20.10;;;22.60;99.90;;;;;;5069411;28;20100;-68
2021/09/17 10:56:28;;;;;;;31.80;22.17;;;22.00;99.90;;;;;;5110914;27;20399;-68
2021/09/17 10:59:14;;;;;;;34.65;24.98;;;21.50;99.90;;;;;;5104205;28;20465;-68
2021/09/17 11:02:03;;;;;;;30.75;22.05;;;21.40;99.90;;;;;;5091131;28;20495;-68
2021/09/17 11:04:45;;;;;;;28.45;21.80;;;21.50;99.90;;;;;;5097120;28;20032;-68
2021/09/17 11:07:33;;;;;;;29.90;20.10;;;21.40;99.90;;;;;;5073560;28;20031;-68
2021/09/17 11:09:59;;;;;;;28.88;20.08;;;21.40;99.90;;;;;;5080221;28;20504;-70
2021/09/17 11:12:28;;;;;;;31.10;22.33;;;21.50;99.90;;;;;;5082641;28;20431;-72
2021/09/17 11:15:16;;;;;;;30.30;21.77;;;21.50;99.90;;;;;;5082245;28;20166;-72
2021/09/17 11:17:47;;;;;;;35.58;24.45;;;21.60;99.90;;;;;;5095595;28;20024;-67
2021/09/17 11:20:59;;;;;;;29.20;20.83;;;21.40;99.90;;;;;;5074337;28;20492;-68
2021/09/17 11:23:35;;;;;;;29.00;20.85;;;21.60;99.90;;;;;;5089448;28;20048;-68
2021/09/17 11:26:00;;;;;;;29.80;21.55;;;21.50;99.90;;;;;;5070869;28;20024;-68
2021/09/17 11:28:28;;;;;;;29.80;22.27;;;21.40;99.90;;;;;;5088478;28;20028;-69
2021/09/17 11:31:08;;;;;;;34.85;23.45;;;21.40;99.90;;;;;;5072444;28;20036;-68
2021/09/17 11:33:34;;;;;;;32.53;23.10;;;21.70;99.90;;;;;;5088832;28;20016;-68
2021/09/17 11:35:59;;;;;;;26.40;19.83;;;22.30;99.90;;;;;;5089722;28;20390;-68
2021/09/17 11:38:28;;;;;;;28.98;20.63;;;22.90;99.90;;;;;;5072288;28;20389;-68
2021/09/17 11:41:06;;;;;;;28.42;20.48;;;22.30;99.90;;;;;;5081182;28;20035;-66
2021/09/17 11:43:56;;;;;;;24.52;18.05;;;22.10;99.90;;;;;;5073237;28;20016;-69
2021/09/17 11:46:25;;;;;;;23.10;16.38;;;22.00;99.90;;;;;;5072062;28;20028;-66
2021/09/17 11:48:51;;;;;;;24.38;18.00;;;22.40;99.90;;;;;;5090548;28;20078;-67
2021/09/17 11:51:21;;;;;;;22.27;16.92;;;22.30;99.90;;;;;;5102890;28;20039;-69
2021/09/17 11:53:47;;;;;;;32.20;21.80;;;23.00;99.90;;;;;;5098996;28;20031;-68
2021/09/17 11:56:16;;;;;;;26.77;20.30;;;22.50;99.90;;;;;;5092549;28;20442;-69
2021/09/17 11:58:45;;;;;;;27.35;19.83;;;22.40;99.90;;;;;;5109379;27;20483;-67
2021/09/17 12:01:22;;;;;;;29.17;21.35;;;22.00;99.90;;;;;;5089032;28;20070;-66
2021/09/17 12:03:55;;;;;;;31.38;20.60;;;21.70;99.90;;;;;;5088603;28;20021;-68
2021/09/17 12:06:30;;;;;;;27.75;19.92;;;21.80;99.90;;;;;;5067081;28;20085;-67
2021/09/17 12:08:57;;;;;;;32.63;22.75;;;22.20;99.90;;;;;;5063896;28;20094;-68
2021/09/17 12:11:23;;;;;;;26.80;19.45;;;22.50;99.90;;;;;;5086782;28;20021;-69
2021/09/17 12:13:57;;;;;;;26.98;20.42;;;22.30;99.90;;;;;;5085875;28;20040;-69
2021/09/17 12:16:22;;;;;;;28.75;20.25;;;22.40;99.90;;;;;;5082945;28;20031;-68
2021/09/17 12:19:04;;;;;;;28.25;20.30;;;22.10;99.90;;;;;;5096842;28;20481;-69
2021/09/17 12:21:33;;;;;;;27.88;20.10;;;22.20;99.90;;;;;;5093578;28;20100;-68
2021/09/17 12:24:16;;;;;;;30.45;22.27;;;21.90;99.90;;;;;;5058189;28;20020;-69
2021/09/17 12:26:49;;;;;;;29.95;19.90;;;21.30;99.90;;;;;;5075740;28;20028;-68
2021/09/17 12:29:15;;;;;;;27.83;20.10;;;21.20;99.90;;;;;;5074836;28;20035;-68
2021/09/17 12:31:44;;;;;;;28.80;21.38;;;21.10;99.90;;;;;;5081914;28;20103;-69
2021/09/17 12:37:16;;;;;;;30.65;21.35;;;20.80;99.90;;;;;;5024327;28;20048;-67